sensor_id;sensor_type;location;lat;lon;timestamp;temperature;humidity
1994;DHT22;998;49.906;10.908;2022-11-03T00:00:56;8.90;99.90
1994;DHT22;998;49.906;10.908;2022-11-03T00:03:26;8.90;99.90
1994;DHT22;998;49.906;10.908;2022-11-03T00:05:53;8.90;99.90
1994;DHT22;998;49.906;10.908;2022-11-03T00:08:39;8.90;99.90
1994;DHT22;998;49.906;10.908;2022-11-03T00:11:09;8.80;99.90
1994;DHT22;998;49.906;10.908;2022-11-03T00:13:37;8.80;99.90
1994;DHT22;998;49.906;10.908;2022-11-03T00:16:07;8.80;99.90
1994;DHT22;998;49.906;10.908;2022-11-03T00:18:36;8.70;99.90
1994;DHT22;998;49.906;10.908;2022-11-03T00:21:06;8.70;99.90
1994;DHT22;998;49.906;10.908;2022-11-03T00:23:35;8.70;99.90
1994;DHT22;998;49.906;10.908;2022-11-03T00:26:04;8.80;99.90
1994;DHT22;998;49.906;10.908;2022-11-03T00:28:32;8.80;99.90
1994;DHT22;998;49.906;10.908;2022-11-03T00:31:00;8.80;99.90
1994;DHT22;998;49.906;10.908;2022-11-03T00:33:30;8.70;99.90
1994;DHT22;998;49.906;10.908;2022-11-03T00:36:00;8.80;99.90
1994;DHT22;998;49.906;10.908;2022-11-03T00:38:28;8.70;99.90
1994;DHT22;998;49.906;10.908;2022-11-03T00:40:56;8.70;99.90
1994;DHT22;998;49.906;10.908;2022-11-03T00:43:25;8.70;99.90
1994;DHT22;998;49.906;10.908;2022-11-03T00:45:53;8.70;99.90
1994;DHT22;998;49.906;10.908;2022-11-03T00:48:22;8.80;99.90
1994;DHT22;998;49.906;10.908;2022-11-03T00:51:01;8.70;99.90
1994;DHT22;998;49.906;10.908;2022-11-03T00:53:29;8.70;99.90
1994;DHT22;998;49.906;10.908;2022-11-03T00:55:57;8.70;99.90
1994;DHT22;998;49.906;10.908;2022-11-03T00:58:25;8.60;99.90
1994;DHT22;998;49.906;10.908;2022-11-03T01:00:58;8.60;99.90
1994;DHT22;998;49.906;10.908;2022-11-03T01:03:26;8.50;99.90
1994;DHT22;998;49.906;10.908;2022-11-03T01:05:54;8.50;99.90
1994;DHT22;998;49.906;10.908;2022-11-03T01:08:40;8.50;99.90
1994;DHT22;998;49.906;10.908;2022-11-03T01:11:09;8.60;99.90
1994;DHT22;998;49.906;10.908;2022-11-03T01:13:54;8.60;99.90
1994;DHT22;998;49.906;10.908;2022-11-03T01:16:22;8.40;99.90
1994;DHT22;998;49.906;10.908;2022-11-03T01:18:50;8.40;99.90
1994;DHT22;998;49.906;10.908;2022-11-03T01:21:17;8.40;99.90
1994;DHT22;998;49.906;10.908;2022-11-03T01:23:46;8.30;99.90
1994;DHT22;998;49.906;10.908;2022-11-03T01:26:14;8.30;99.90
1994;DHT22;998;49.906;10.908;2022-11-03T01:28:43;8.30;99.90
1994;DHT22;998;49.906;10.908;2022-11-03T01:31:12;8.30;99.90
1994;DHT22;998;49.906;10.908;2022-11-03T01:33:40;8.30;99.90
1994;DHT22;998;49.906;10.908;2022-11-03T01:36:09;8.30;99.90
1994;DHT22;998;49.906;10.908;2022-11-03T01:38:37;8.30;99.90
1994;DHT22;998;49.906;10.908;2022-11-03T01:41:08;8.30;99.90
1994;DHT22;998;49.906;10.908;2022-11-03T01:43:37;8.30;99.90
1994;DHT22;998;49.906;10.908;2022-11-03T01:46:11;8.20;99.90
1994;DHT22;998;49.906;10.908;2022-11-03T01:48:43;8.20;99.90
1994;DHT22;998;49.906;10.908;2022-11-03T01:51:14;8.20;99.90
1994;DHT22;998;49.906;10.908;2022-11-03T01:53:46;8.20;99.90
1994;DHT22;998;49.906;10.908;2022-11-03T01:56:15;8.20;99.90
1994;DHT22;998;49.906;10.908;2022-11-03T01:58:45;8.20;99.90
1994;DHT22;998;49.906;10.908;2022-11-03T02:01:14;8.00;99.90
1994;DHT22;998;49.906;10.908;2022-11-03T02:03:45;8.10;99.90
1994;DHT22;998;49.906;10.908;2022-11-03T02:06:14;7.90;99.90
1994;DHT22;998;49.906;10.908;2022-11-03T02:08:46;7.90;99.90
1994;DHT22;998;49.906;10.908;2022-11-03T02:11:16;7.80;99.90
1994;DHT22;998;49.906;10.908;2022-11-03T02:14:00;7.70;99.90
1994;DHT22;998;49.906;10.908;2022-11-03T02:16:30;7.70;99.90
1994;DHT22;998;49.906;10.908;2022-11-03T02:18:59;7.70;99.90
1994;DHT22;998;49.906;10.908;2022-11-03T02:21:30;7.80;99.90
1994;DHT22;998;49.906;10.908;2022-11-03T02:24:07;7.70;99.90
1994;DHT22;998;49.906;10.908;2022-11-03T02:26:40;7.70;99.90
1994;DHT22;998;49.906;10.908;2022-11-03T02:29:09;7.70;99.90
1994;DHT22;998;49.906;10.908;2022-11-03T02:31:42;7.70;99.90
1994;DHT22;998;49.906;10.908;2022-11-03T02:34:16;7.80;99.90
1994;DHT22;998;49.906;10.908;2022-11-03T02:36:48;7.80;99.90
1994;DHT22;998;49.906;10.908;2022-11-03T02:39:21;7.80;99.90
1994;DHT22;998;49.906;10.908;2022-11-03T02:41:53;7.70;99.90
1994;DHT22;998;49.906;10.908;2022-11-03T02:44:22;7.70;99.90
1994;DHT22;998;49.906;10.908;2022-11-03T02:46:54;7.70;99.90
1994;DHT22;998;49.906;10.908;2022-11-03T02:49:23;7.60;99.90
1994;DHT22;998;49.906;10.908;2022-11-03T02:51:58;7.50;99.90
1994;DHT22;998;49.906;10.908;2022-11-03T02:54:29;7.50;99.90
1994;DHT22;998;49.906;10.908;2022-11-03T02:57:02;7.60;99.90
1994;DHT22;998;49.906;10.908;2022-11-03T02:59:36;7.60;99.90
1994;DHT22;998;49.906;10.908;2022-11-03T03:02:08;7.50;99.90
1994;DHT22;998;49.906;10.908;2022-11-03T03:04:41;7.50;99.90
1994;DHT22;998;49.906;10.908;2022-11-03T03:07:11;7.40;99.90
1994;DHT22;998;49.906;10.908;2022-11-03T03:09:44;7.40;99.90
1994;DHT22;998;49.906;10.908;2022-11-03T03:12:16;7.40;99.90
1994;DHT22;998;49.906;10.908;2022-11-03T03:14:46;7.40;99.90
1994;DHT22;998;49.906;10.908;2022-11-03T03:17:18;7.40;99.90
1994;DHT22;998;49.906;10.908;2022-11-03T03:19:52;7.50;99.90
1994;DHT22;998;49.906;10.908;2022-11-03T03:22:27;7.40;99.90
1994;DHT22;998;49.906;10.908;2022-11-03T03:25:01;7.40;99.90
1994;DHT22;998;49.906;10.908;2022-11-03T03:27:39;7.40;99.90
1994;DHT22;998;49.906;10.908;2022-11-03T03:30:09;7.30;99.90
1994;DHT22;998;49.906;10.908;2022-11-03T03:32:39;7.30;99.90
1994;DHT22;998;49.906;10.908;2022-11-03T03:35:13;7.30;99.90
1994;DHT22;998;49.906;10.908;2022-11-03T03:37:45;7.20;99.90
1994;DHT22;998;49.906;10.908;2022-11-03T03:40:18;7.10;99.90
1994;DHT22;998;49.906;10.908;2022-11-03T03:42:48;7.00;99.90
1994;DHT22;998;49.906;10.908;2022-11-03T03:45:18;7.10;99.90
1994;DHT22;998;49.906;10.908;2022-11-03T03:47:47;7.20;99.90
1994;DHT22;998;49.906;10.908;2022-11-03T03:50:15;7.20;99.90
1994;DHT22;998;49.906;10.908;2022-11-03T03:52:43;7.10;99.90
1994;DHT22;998;49.906;10.908;2022-11-03T03:55:16;7.00;99.90
1994;DHT22;998;49.906;10.908;2022-11-03T03:57:44;6.90;99.90
1994;DHT22;998;49.906;10.908;2022-11-03T04:00:14;6.80;99.90
1994;DHT22;998;49.906;10.908;2022-11-03T04:02:42;6.90;99.90
1994;DHT22;998;49.906;10.908;2022-11-03T04:05:09;6.80;99.90
1994;DHT22;998;49.906;10.908;2022-11-03T04:07:36;6.70;99.90
1994;DHT22;998;49.906;10.908;2022-11-03T04:10:13;6.80;99.90
1994;DHT22;998;49.906;10.908;2022-11-03T04:12:42;6.80;99.90
1994;DHT22;998;49.906;10.908;2022-11-03T04:15:29;6.80;99.90
1994;DHT22;998;49.906;10.908;2022-11-03T04:18:13;6.80;99.90
1994;DHT22;998;49.906;10.908;2022-11-03T04:20:58;6.80;99.90
1994;DHT22;998;49.906;10.908;2022-11-03T04:23:43;6.80;99.90
1994;DHT22;998;49.906;10.908;2022-11-03T04:26:13;6.80;99.90
1994;DHT22;998;49.906;10.908;2022-11-03T04:28:40;6.80;99.90
1994;DHT22;998;49.906;10.908;2022-11-03T04:31:11;6.80;99.90
1994;DHT22;998;49.906;10.908;2022-11-03T04:33:39;6.80;99.90
1994;DHT22;998;49.906;10.908;2022-11-03T04:36:11;6.80;99.90
1994;DHT22;998;49.906;10.908;2022-11-03T04:38:42;6.70;99.90
1994;DHT22;998;49.906;10.908;2022-11-03T04:41:14;6.70;99.90
1994;DHT22;998;49.906;10.908;2022-11-03T04:43:43;6.70;99.90
1994;DHT22;998;49.906;10.908;2022-11-03T04:46:15;6.70;99.90
1994;DHT22;998;49.906;10.908;2022-11-03T04:48:43;6.70;99.90
1994;DHT22;998;49.906;10.908;2022-11-03T04:51:14;6.70;99.90
1994;DHT22;998;49.906;10.908;2022-11-03T04:53:47;6.70;99.90
1994;DHT22;998;49.906;10.908;2022-11-03T04:56:17;6.70;99.90
1994;DHT22;998;49.906;10.908;2022-11-03T04:58:46;6.60;99.90
1994;DHT22;998;49.906;10.908;2022-11-03T05:01:17;6.60;99.90
1994;DHT22;998;49.906;10.908;2022-11-03T05:03:47;6.70;99.90
1994;DHT22;998;49.906;10.908;2022-11-03T05:06:17;6.70;99.90
1994;DHT22;998;49.906;10.908;2022-11-03T05:08:49;6.70;99.90
1994;DHT22;998;49.906;10.908;2022-11-03T05:11:20;6.60;99.90
1994;DHT22;998;49.906;10.908;2022-11-03T05:13:48;6.70;99.90
1994;DHT22;998;49.906;10.908;2022-11-03T05:16:18;6.70;99.90
1994;DHT22;998;49.906;10.908;2022-11-03T05:18:48;6.60;99.90
1994;DHT22;998;49.906;10.908;2022-11-03T05:21:18;6.70;99.90
1994;DHT22;998;49.906;10.908;2022-11-03T05:23:49;6.80;99.90
1994;DHT22;998;49.906;10.908;2022-11-03T05:26:18;6.70;99.90
1994;DHT22;998;49.906;10.908;2022-11-03T05:28:48;6.60;99.90
1994;DHT22;998;49.906;10.908;2022-11-03T05:31:24;6.60;99.90
1994;DHT22;998;49.906;10.908;2022-11-03T05:33:52;6.60;99.90
1994;DHT22;998;49.906;10.908;2022-11-03T05:36:22;6.60;99.90
1994;DHT22;998;49.906;10.908;2022-11-03T05:38:52;6.60;99.90
1994;DHT22;998;49.906;10.908;2022-11-03T05:41:22;6.60;99.90
1994;DHT22;998;49.906;10.908;2022-11-03T05:43:55;6.50;99.90
1994;DHT22;998;49.906;10.908;2022-11-03T05:46:27;6.40;99.90
1994;DHT22;998;49.906;10.908;2022-11-03T05:48:55;6.50;99.90
1994;DHT22;998;49.906;10.908;2022-11-03T05:51:27;6.40;99.90
1994;DHT22;998;49.906;10.908;2022-11-03T05:53:57;6.40;99.90
1994;DHT22;998;49.906;10.908;2022-11-03T05:56:26;6.50;99.90
1994;DHT22;998;49.906;10.908;2022-11-03T05:58:55;6.50;99.90
1994;DHT22;998;49.906;10.908;2022-11-03T06:01:27;6.50;99.90
1994;DHT22;998;49.906;10.908;2022-11-03T06:03:55;6.30;99.90
1994;DHT22;998;49.906;10.908;2022-11-03T06:06:26;6.30;99.90
1994;DHT22;998;49.906;10.908;2022-11-03T06:08:55;6.20;99.90
1994;DHT22;998;49.906;10.908;2022-11-03T06:11:26;6.30;99.90
1994;DHT22;998;49.906;10.908;2022-11-03T06:13:56;6.30;99.90
1994;DHT22;998;49.906;10.908;2022-11-03T06:16:35;6.30;99.90
1994;DHT22;998;49.906;10.908;2022-11-03T06:19:18;6.40;99.90
1994;DHT22;998;49.906;10.908;2022-11-03T06:21:47;6.40;99.90
1994;DHT22;998;49.906;10.908;2022-11-03T06:24:16;6.40;99.90
1994;DHT22;998;49.906;10.908;2022-11-03T06:26:45;6.40;99.90
1994;DHT22;998;49.906;10.908;2022-11-03T06:29:14;6.40;99.90
1994;DHT22;998;49.906;10.908;2022-11-03T06:31:47;6.40;99.90
1994;DHT22;998;49.906;10.908;2022-11-03T06:34:32;6.40;99.90
1994;DHT22;998;49.906;10.908;2022-11-03T06:37:09;6.40;99.90
1994;DHT22;998;49.906;10.908;2022-11-03T06:39:37;6.40;99.90
1994;DHT22;998;49.906;10.908;2022-11-03T06:42:11;6.40;99.90
1994;DHT22;998;49.906;10.908;2022-11-03T06:44:40;6.40;99.90
1994;DHT22;998;49.906;10.908;2022-11-03T06:47:19;6.40;99.90
1994;DHT22;998;49.906;10.908;2022-11-03T06:49:49;6.40;99.90
1994;DHT22;998;49.906;10.908;2022-11-03T06:52:28;6.40;99.90
1994;DHT22;998;49.906;10.908;2022-11-03T06:55:07;6.40;99.90
1994;DHT22;998;49.906;10.908;2022-11-03T06:57:41;6.40;99.90
1994;DHT22;998;49.906;10.908;2022-11-03T07:00:15;6.50;99.90
1994;DHT22;998;49.906;10.908;2022-11-03T07:03:06;6.50;99.90
1994;DHT22;998;49.906;10.908;2022-11-03T07:05:35;6.50;99.90
1994;DHT22;998;49.906;10.908;2022-11-03T07:08:13;6.50;99.90
1994;DHT22;998;49.906;10.908;2022-11-03T07:10:43;6.50;99.90
1994;DHT22;998;49.906;10.908;2022-11-03T07:13:13;6.50;99.90
1994;DHT22;998;49.906;10.908;2022-11-03T07:15:43;6.30;99.90
1994;DHT22;998;49.906;10.908;2022-11-03T07:18:19;6.50;99.90
1994;DHT22;998;49.906;10.908;2022-11-03T07:20:47;6.60;99.90
1994;DHT22;998;49.906;10.908;2022-11-03T07:23:20;6.60;99.90
1994;DHT22;998;49.906;10.908;2022-11-03T07:25:50;6.50;99.90
1994;DHT22;998;49.906;10.908;2022-11-03T07:28:20;6.60;99.90
1994;DHT22;998;49.906;10.908;2022-11-03T07:30:49;6.60;99.90
1994;DHT22;998;49.906;10.908;2022-11-03T07:33:20;6.60;99.90
1994;DHT22;998;49.906;10.908;2022-11-03T07:35:48;6.60;99.90
1994;DHT22;998;49.906;10.908;2022-11-03T07:38:19;6.70;99.90
1994;DHT22;998;49.906;10.908;2022-11-03T07:40:48;6.70;99.90
1994;DHT22;998;49.906;10.908;2022-11-03T07:43:18;6.70;99.90
1994;DHT22;998;49.906;10.908;2022-11-03T07:45:48;6.70;99.90
1994;DHT22;998;49.906;10.908;2022-11-03T07:48:22;6.70;99.90
1994;DHT22;998;49.906;10.908;2022-11-03T07:50:51;6.80;99.90
1994;DHT22;998;49.906;10.908;2022-11-03T07:53:21;6.80;99.90
1994;DHT22;998;49.906;10.908;2022-11-03T07:55:53;6.90;99.90
1994;DHT22;998;49.906;10.908;2022-11-03T07:58:23;6.90;99.90
1994;DHT22;998;49.906;10.908;2022-11-03T08:00:55;7.00;99.90
1994;DHT22;998;49.906;10.908;2022-11-03T08:03:36;7.10;99.90
1994;DHT22;998;49.906;10.908;2022-11-03T08:06:07;7.10;99.90
1994;DHT22;998;49.906;10.908;2022-11-03T08:08:35;7.10;99.90
1994;DHT22;998;49.906;10.908;2022-11-03T08:11:02;7.20;99.90
1994;DHT22;998;49.906;10.908;2022-11-03T08:13:30;7.20;99.90
1994;DHT22;998;49.906;10.908;2022-11-03T08:15:57;7.20;99.90
1994;DHT22;998;49.906;10.908;2022-11-03T08:18:25;7.30;99.90
1994;DHT22;998;49.906;10.908;2022-11-03T08:20:54;7.30;99.90
1994;DHT22;998;49.906;10.908;2022-11-03T08:23:21;7.40;99.90
1994;DHT22;998;49.906;10.908;2022-11-03T08:25:48;7.40;99.90
1994;DHT22;998;49.906;10.908;2022-11-03T08:28:16;7.50;99.90
1994;DHT22;998;49.906;10.908;2022-11-03T08:30:43;7.40;99.90
1994;DHT22;998;49.906;10.908;2022-11-03T08:33:10;7.50;99.90
1994;DHT22;998;49.906;10.908;2022-11-03T08:35:38;7.50;99.90
1994;DHT22;998;49.906;10.908;2022-11-03T08:38:07;7.60;99.90
1994;DHT22;998;49.906;10.908;2022-11-03T08:40:35;7.50;99.90
1994;DHT22;998;49.906;10.908;2022-11-03T08:43:02;7.60;99.90
1994;DHT22;998;49.906;10.908;2022-11-03T08:45:31;7.60;99.90
1994;DHT22;998;49.906;10.908;2022-11-03T08:47:58;7.80;99.90
1994;DHT22;998;49.906;10.908;2022-11-03T08:50:26;7.80;99.90
1994;DHT22;998;49.906;10.908;2022-11-03T08:52:53;7.90;99.90
1994;DHT22;998;49.906;10.908;2022-11-03T08:55:22;7.90;99.90
1994;DHT22;998;49.906;10.908;2022-11-03T08:57:49;8.00;99.90
1994;DHT22;998;49.906;10.908;2022-11-03T09:00:17;8.00;99.90
1994;DHT22;998;49.906;10.908;2022-11-03T09:02:45;8.00;99.90
1994;DHT22;998;49.906;10.908;2022-11-03T09:05:12;8.10;99.90
1994;DHT22;998;49.906;10.908;2022-11-03T09:07:40;8.20;99.90
1994;DHT22;998;49.906;10.908;2022-11-03T09:10:09;8.20;99.90
1994;DHT22;998;49.906;10.908;2022-11-03T09:12:38;8.30;99.90
1994;DHT22;998;49.906;10.908;2022-11-03T09:15:06;8.30;99.90
1994;DHT22;998;49.906;10.908;2022-11-03T09:17:34;8.40;99.90
1994;DHT22;998;49.906;10.908;2022-11-03T09:20:01;8.60;99.90
1994;DHT22;998;49.906;10.908;2022-11-03T09:22:29;8.60;99.90
1994;DHT22;998;49.906;10.908;2022-11-03T09:24:56;8.70;99.90
1994;DHT22;998;49.906;10.908;2022-11-03T09:27:24;8.70;99.90
1994;DHT22;998;49.906;10.908;2022-11-03T09:29:53;8.80;99.90
1994;DHT22;998;49.906;10.908;2022-11-03T09:32:20;8.90;99.90
1994;DHT22;998;49.906;10.908;2022-11-03T09:34:48;9.00;99.90
1994;DHT22;998;49.906;10.908;2022-11-03T09:37:15;9.00;99.90
1994;DHT22;998;49.906;10.908;2022-11-03T09:39:43;9.00;99.90
1994;DHT22;998;49.906;10.908;2022-11-03T09:42:11;9.10;99.90
1994;DHT22;998;49.906;10.908;2022-11-03T09:44:39;9.20;99.90
1994;DHT22;998;49.906;10.908;2022-11-03T09:47:14;9.20;99.90
1994;DHT22;998;49.906;10.908;2022-11-03T09:49:45;9.30;99.90
1994;DHT22;998;49.906;10.908;2022-11-03T09:52:16;9.40;99.90
1994;DHT22;998;49.906;10.908;2022-11-03T09:54:44;9.50;99.90
1994;DHT22;998;49.906;10.908;2022-11-03T09:57:12;9.50;99.90
1994;DHT22;998;49.906;10.908;2022-11-03T09:59:42;9.60;99.90
1994;DHT22;998;49.906;10.908;2022-11-03T10:02:19;9.60;99.90
1994;DHT22;998;49.906;10.908;2022-11-03T10:04:47;9.70;99.90
1994;DHT22;998;49.906;10.908;2022-11-03T10:07:15;9.70;99.90
1994;DHT22;998;49.906;10.908;2022-11-03T10:09:44;9.70;99.90
1994;DHT22;998;49.906;10.908;2022-11-03T10:12:12;9.80;99.90
1994;DHT22;998;49.906;10.908;2022-11-03T10:14:40;9.90;99.90
1994;DHT22;998;49.906;10.908;2022-11-03T10:17:14;10.00;99.90
1994;DHT22;998;49.906;10.908;2022-11-03T10:19:44;10.30;99.90
1994;DHT22;998;49.906;10.908;2022-11-03T10:22:14;10.60;99.90
1994;DHT22;998;49.906;10.908;2022-11-03T10:24:41;11.00;99.90
1994;DHT22;998;49.906;10.908;2022-11-03T10:27:20;11.20;99.90
1994;DHT22;998;49.906;10.908;2022-11-03T10:30:04;11.60;99.90
1994;DHT22;998;49.906;10.908;2022-11-03T10:32:34;11.90;99.90
1994;DHT22;998;49.906;10.908;2022-11-03T10:35:02;12.30;99.90
1994;DHT22;998;49.906;10.908;2022-11-03T10:37:29;12.70;99.90
1994;DHT22;998;49.906;10.908;2022-11-03T10:39:57;13.10;99.90
1994;DHT22;998;49.906;10.908;2022-11-03T10:42:26;13.40;99.90
1994;DHT22;998;49.906;10.908;2022-11-03T10:45:09;13.80;99.90
1994;DHT22;998;49.906;10.908;2022-11-03T10:47:39;14.30;99.90
1994;DHT22;998;49.906;10.908;2022-11-03T10:50:20;14.60;99.90
1994;DHT22;998;49.906;10.908;2022-11-03T10:52:48;15.00;99.90
1994;DHT22;998;49.906;10.908;2022-11-03T10:55:16;15.00;99.90
1994;DHT22;998;49.906;10.908;2022-11-03T10:57:44;14.90;99.90
1994;DHT22;998;49.906;10.908;2022-11-03T11:00:13;14.90;99.90
1994;DHT22;998;49.906;10.908;2022-11-03T11:02:43;14.60;99.90
1994;DHT22;998;49.906;10.908;2022-11-03T11:05:14;14.60;99.90
1994;DHT22;998;49.906;10.908;2022-11-03T11:07:44;14.60;99.90
1994;DHT22;998;49.906;10.908;2022-11-03T11:10:14;14.30;99.90
1994;DHT22;998;49.906;10.908;2022-11-03T11:13:03;14.40;99.90
1994;DHT22;998;49.906;10.908;2022-11-03T11:15:37;14.30;99.90
1994;DHT22;998;49.906;10.908;2022-11-03T11:18:07;14.20;99.90
1994;DHT22;998;49.906;10.908;2022-11-03T11:20:37;14.30;99.90
1994;DHT22;998;49.906;10.908;2022-11-03T11:26:30;14.50;99.90
1994;DHT22;998;49.906;10.908;2022-11-03T11:29:34;14.80;99.90
1994;DHT22;998;49.906;10.908;2022-11-03T11:39:02;14.90;99.90
1994;DHT22;998;49.906;10.908;2022-11-03T11:42:04;14.80;99.90
1994;DHT22;998;49.906;10.908;2022-11-03T11:44:56;14.80;99.90
1994;DHT22;998;49.906;10.908;2022-11-03T11:47:32;15.00;99.90
1994;DHT22;998;49.906;10.908;2022-11-03T11:50:24;15.00;99.90
1994;DHT22;998;49.906;10.908;2022-11-03T11:53:13;15.10;99.90
1994;DHT22;998;49.906;10.908;2022-11-03T11:55:50;15.00;99.90
1994;DHT22;998;49.906;10.908;2022-11-03T11:58:22;15.10;99.90
1994;DHT22;998;49.906;10.908;2022-11-03T12:00:52;15.10;99.90
1994;DHT22;998;49.906;10.908;2022-11-03T12:03:25;15.00;99.90
1994;DHT22;998;49.906;10.908;2022-11-03T12:05:54;14.80;99.90
1994;DHT22;998;49.906;10.908;2022-11-03T12:08:25;14.80;99.90
1994;DHT22;998;49.906;10.908;2022-11-03T12:10:57;15.00;99.90
1994;DHT22;998;49.906;10.908;2022-11-03T12:13:49;15.30;99.90
1994;DHT22;998;49.906;10.908;2022-11-03T12:16:33;15.50;99.90
1994;DHT22;998;49.906;10.908;2022-11-03T12:19:36;15.30;99.90
1994;DHT22;998;49.906;10.908;2022-11-03T12:22:04;15.20;99.90
1994;DHT22;998;49.906;10.908;2022-11-03T12:27:40;15.10;99.90
1994;DHT22;998;49.906;10.908;2022-11-03T12:30:13;15.00;99.90
1994;DHT22;998;49.906;10.908;2022-11-03T12:32:41;15.10;99.90
1994;DHT22;998;49.906;10.908;2022-11-03T12:35:09;15.20;99.90
1994;DHT22;998;49.906;10.908;2022-11-03T12:37:38;15.20;99.90
1994;DHT22;998;49.906;10.908;2022-11-03T12:40:07;15.30;99.90
1994;DHT22;998;49.906;10.908;2022-11-03T12:42:35;15.20;99.90
1994;DHT22;998;49.906;10.908;2022-11-03T12:45:05;15.10;99.90
1994;DHT22;998;49.906;10.908;2022-11-03T12:47:33;14.90;99.90
1994;DHT22;998;49.906;10.908;2022-11-03T12:50:00;14.90;99.90
1994;DHT22;998;49.906;10.908;2022-11-03T12:52:28;14.90;99.90
1994;DHT22;998;49.906;10.908;2022-11-03T12:54:55;14.80;99.90
1994;DHT22;998;49.906;10.908;2022-11-03T12:57:23;14.80;99.90
1994;DHT22;998;49.906;10.908;2022-11-03T12:59:50;14.80;99.90
1994;DHT22;998;49.906;10.908;2022-11-03T13:02:19;14.80;99.90
1994;DHT22;998;49.906;10.908;2022-11-03T13:04:46;14.80;99.90
1994;DHT22;998;49.906;10.908;2022-11-03T13:07:14;14.90;99.90
1994;DHT22;998;49.906;10.908;2022-11-03T13:09:41;14.90;99.90
1994;DHT22;998;49.906;10.908;2022-11-03T13:12:11;14.90;99.90
1994;DHT22;998;49.906;10.908;2022-11-03T13:14:56;14.90;99.90
1994;DHT22;998;49.906;10.908;2022-11-03T13:17:25;14.80;99.90
1994;DHT22;998;49.906;10.908;2022-11-03T13:19:53;14.80;99.90
1994;DHT22;998;49.906;10.908;2022-11-03T13:22:20;14.80;99.90
1994;DHT22;998;49.906;10.908;2022-11-03T13:24:47;14.80;99.90
1994;DHT22;998;49.906;10.908;2022-11-03T13:27:15;14.70;99.90
1994;DHT22;998;49.906;10.908;2022-11-03T13:29:42;14.70;99.90
1994;DHT22;998;49.906;10.908;2022-11-03T13:32:10;14.70;99.90
1994;DHT22;998;49.906;10.908;2022-11-03T13:34:39;14.70;99.90
1994;DHT22;998;49.906;10.908;2022-11-03T13:37:06;14.60;99.90
1994;DHT22;998;49.906;10.908;2022-11-03T13:39:33;14.60;99.90
1994;DHT22;998;49.906;10.908;2022-11-03T13:42:01;14.60;99.90
1994;DHT22;998;49.906;10.908;2022-11-03T13:44:29;14.60;99.90
1994;DHT22;998;49.906;10.908;2022-11-03T13:46:56;14.50;99.90
1994;DHT22;998;49.906;10.908;2022-11-03T13:49:24;14.60;99.90
1994;DHT22;998;49.906;10.908;2022-11-03T13:51:52;14.60;99.90
1994;DHT22;998;49.906;10.908;2022-11-03T13:54:20;14.50;99.90
1994;DHT22;998;49.906;10.908;2022-11-03T13:56:47;14.50;99.90
1994;DHT22;998;49.906;10.908;2022-11-03T13:59:15;14.50;99.90
1994;DHT22;998;49.906;10.908;2022-11-03T14:01:42;14.50;99.90
1994;DHT22;998;49.906;10.908;2022-11-03T14:04:10;14.50;99.90
1994;DHT22;998;49.906;10.908;2022-11-03T14:06:37;14.40;99.90
1994;DHT22;998;49.906;10.908;2022-11-03T14:09:06;14.50;99.90
1994;DHT22;998;49.906;10.908;2022-11-03T14:11:34;14.40;99.90
1994;DHT22;998;49.906;10.908;2022-11-03T14:14:18;14.40;99.90
1994;DHT22;998;49.906;10.908;2022-11-03T14:16:46;14.40;99.90
1994;DHT22;998;49.906;10.908;2022-11-03T14:19:13;14.40;99.90
1994;DHT22;998;49.906;10.908;2022-11-03T14:21:41;14.30;99.90
1994;DHT22;998;49.906;10.908;2022-11-03T14:24:10;14.30;99.90
1994;DHT22;998;49.906;10.908;2022-11-03T14:26:37;14.30;99.90
1994;DHT22;998;49.906;10.908;2022-11-03T14:29:05;14.20;99.90
1994;DHT22;998;49.906;10.908;2022-11-03T14:31:32;14.20;99.90
1994;DHT22;998;49.906;10.908;2022-11-03T14:33:59;14.20;99.90
1994;DHT22;998;49.906;10.908;2022-11-03T14:36:27;14.20;99.90
1994;DHT22;998;49.906;10.908;2022-11-03T14:38:54;14.10;99.90
1994;DHT22;998;49.906;10.908;2022-11-03T14:41:23;14.10;99.90
1994;DHT22;998;49.906;10.908;2022-11-03T14:44:08;14.10;99.90
1994;DHT22;998;49.906;10.908;2022-11-03T14:46:35;14.10;99.90
1994;DHT22;998;49.906;10.908;2022-11-03T14:49:03;14.00;99.90
1994;DHT22;998;49.906;10.908;2022-11-03T14:51:31;14.00;99.90
1994;DHT22;998;49.906;10.908;2022-11-03T14:53:58;14.00;99.90
1994;DHT22;998;49.906;10.908;2022-11-03T14:56:27;13.90;99.90
1994;DHT22;998;49.906;10.908;2022-11-03T14:58:55;13.90;99.90
1994;DHT22;998;49.906;10.908;2022-11-03T15:01:22;13.90;99.90
1994;DHT22;998;49.906;10.908;2022-11-03T15:03:49;13.90;99.90
1994;DHT22;998;49.906;10.908;2022-11-03T15:06:16;13.90;99.90
1994;DHT22;998;49.906;10.908;2022-11-03T15:08:44;13.80;99.90
1994;DHT22;998;49.906;10.908;2022-11-03T15:11:11;13.80;99.90
1994;DHT22;998;49.906;10.908;2022-11-03T15:13:40;13.80;99.90
1994;DHT22;998;49.906;10.908;2022-11-03T15:16:08;13.70;99.90
1994;DHT22;998;49.906;10.908;2022-11-03T15:18:35;13.70;99.90
1994;DHT22;998;49.906;10.908;2022-11-03T15:21:02;13.70;99.90
1994;DHT22;998;49.906;10.908;2022-11-03T15:23:29;13.70;99.90
1994;DHT22;998;49.906;10.908;2022-11-03T15:25:57;13.60;99.90
1994;DHT22;998;49.906;10.908;2022-11-03T15:28:24;13.60;99.90
1994;DHT22;998;49.906;10.908;2022-11-03T15:30:53;13.60;99.90
1994;DHT22;998;49.906;10.908;2022-11-03T15:33:20;13.60;99.90
1994;DHT22;998;49.906;10.908;2022-11-03T15:35:48;13.60;99.90
1994;DHT22;998;49.906;10.908;2022-11-03T15:38:15;13.50;99.90
1994;DHT22;998;49.906;10.908;2022-11-03T15:40:43;13.50;99.90
1994;DHT22;998;49.906;10.908;2022-11-03T15:43:11;13.50;99.90
1994;DHT22;998;49.906;10.908;2022-11-03T15:45:38;13.40;99.90
1994;DHT22;998;49.906;10.908;2022-11-03T15:48:08;13.40;99.90
1994;DHT22;998;49.906;10.908;2022-11-03T15:50:35;13.30;99.90
1994;DHT22;998;49.906;10.908;2022-11-03T15:53:02;13.40;99.90
1994;DHT22;998;49.906;10.908;2022-11-03T15:55:30;13.30;99.90
1994;DHT22;998;49.906;10.908;2022-11-03T15:57:57;13.30;99.90
1994;DHT22;998;49.906;10.908;2022-11-03T16:00:24;13.30;99.90
1994;DHT22;998;49.906;10.908;2022-11-03T16:02:52;13.30;99.90
1994;DHT22;998;49.906;10.908;2022-11-03T16:05:21;13.30;99.90
1994;DHT22;998;49.906;10.908;2022-11-03T16:07:48;13.20;99.90
1994;DHT22;998;49.906;10.908;2022-11-03T16:10:16;13.20;99.90
1994;DHT22;998;49.906;10.908;2022-11-03T16:12:43;13.20;99.90
1994;DHT22;998;49.906;10.908;2022-11-03T16:15:11;13.20;99.90
1994;DHT22;998;49.906;10.908;2022-11-03T16:17:38;13.20;99.90
1994;DHT22;998;49.906;10.908;2022-11-03T16:20:07;13.20;99.90
1994;DHT22;998;49.906;10.908;2022-11-03T16:22:37;13.10;99.90
1994;DHT22;998;49.906;10.908;2022-11-03T16:25:05;13.10;99.90
1994;DHT22;998;49.906;10.908;2022-11-03T16:27:32;13.10;99.90
1994;DHT22;998;49.906;10.908;2022-11-03T16:30:00;13.00;99.90
1994;DHT22;998;49.906;10.908;2022-11-03T16:32:27;13.00;99.90
1994;DHT22;998;49.906;10.908;2022-11-03T16:34:55;13.00;99.90
1994;DHT22;998;49.906;10.908;2022-11-03T16:37:22;13.00;99.90
1994;DHT22;998;49.906;10.908;2022-11-03T16:39:53;12.90;99.90
1994;DHT22;998;49.906;10.908;2022-11-03T16:42:21;12.90;99.90
1994;DHT22;998;49.906;10.908;2022-11-03T16:44:48;12.90;99.90
1994;DHT22;998;49.906;10.908;2022-11-03T16:47:16;12.90;99.90